Time;durP1;ratioP1;P1;durP2;ratioP2;P2;SDS_P1;SDS_P2;PMS_P1;PMS_P2;Temp;Humidity;BMP_temperature;BMP_pressure;BME280_temperature;BME280_humidity;BME280_pressure;Samples;Min_cycle;Max_cycle;Signal;HPM_P1;HPM_P2
2022/04/08 00:02:04;;;;;;;9.70;1.73;;;3.00;79.60;;;;;;5098637;28;20048;-67
2022/04/08 00:04:32;;;;;;;10.85;1.58;;;2.90;79.80;;;;;;5091419;28;20063;-67
2022/04/08 00:07:01;;;;;;;11.32;1.75;;;2.70;80.00;;;;;;5092578;28;20044;-67
2022/04/08 00:09:28;;;;;;;16.02;2.30;;;2.60;80.20;;;;;;5091426;28;20051;-67
2022/04/08 00:11:57;;;;;;;6.43;1.27;;;2.50;80.80;;;;;;5083782;28;20469;-66
2022/04/08 00:14:25;;;;;;;8.57;1.75;;;2.40;81.30;;;;;;5092886;28;20488;-67
2022/04/08 00:16:52;;;;;;;7.72;1.73;;;2.50;81.40;;;;;;5101039;28;20039;-67
2022/04/08 00:19:20;;;;;;;10.95;1.58;;;2.50;81.20;;;;;;5099361;28;20444;-67
2022/04/08 00:21:48;;;;;;;8.95;1.33;;;2.60;81.40;;;;;;5073895;28;20500;-67
2022/04/08 00:24:17;;;;;;;13.05;1.65;;;2.70;81.40;;;;;;5099059;28;20035;-67
2022/04/08 00:26:46;;;;;;;14.77;2.20;;;2.70;81.30;;;;;;5085814;28;20056;-66
2022/04/08 00:29:14;;;;;;;11.75;2.13;;;2.80;81.20;;;;;;5097188;28;20055;-68
2022/04/08 00:31:42;;;;;;;14.90;2.10;;;2.80;81.10;;;;;;5088454;28;20386;-67
2022/04/08 00:34:09;;;;;;;8.80;1.58;;;2.80;81.10;;;;;;5110064;28;20412;-66
2022/04/08 00:36:37;;;;;;;9.30;1.55;;;2.80;81.10;;;;;;5110764;28;20047;-66
2022/04/08 00:39:05;;;;;;;11.73;1.67;;;2.90;81.10;;;;;;5108196;28;20400;-66
2022/04/08 00:41:33;;;;;;;9.32;1.90;;;2.90;81.10;;;;;;5097103;28;20039;-67
2022/04/08 00:44:00;;;;;;;13.85;2.08;;;2.80;81.00;;;;;;5090069;28;20036;-67
2022/04/08 00:46:28;;;;;;;8.82;2.05;;;2.80;81.10;;;;;;5090054;28;20044;-67
2022/04/08 00:48:56;;;;;;;10.13;1.50;;;2.80;81.10;;;;;;5090706;28;20047;-67
2022/04/08 00:51:24;;;;;;;13.98;2.10;;;2.70;81.20;;;;;;5086827;28;20047;-67
2022/04/08 00:53:52;;;;;;;13.75;1.52;;;2.60;81.30;;;;;;5080045;28;20048;-66
2022/04/08 00:56:21;;;;;;;10.57;1.75;;;2.60;81.70;;;;;;5105909;28;20060;-66
2022/04/08 00:58:50;;;;;;;10.93;2.13;;;2.60;81.80;;;;;;5100018;28;20400;-67
2022/04/08 01:01:18;;;;;;;14.30;2.20;;;2.50;81.70;;;;;;5109700;28;20047;-67
2022/04/08 01:03:46;;;;;;;9.23;1.88;;;2.40;81.80;;;;;;5090057;28;20044;-67
2022/04/08 01:06:15;;;;;;;13.30;1.58;;;2.40;81.90;;;;;;5093559;28;20078;-67
2022/04/08 01:08:43;;;;;;;9.00;2.05;;;2.30;82.00;;;;;;5088842;28;20055;-66
2022/04/08 01:11:11;;;;;;;14.15;2.20;;;2.20;82.20;;;;;;5091098;28;20484;-66
2022/04/08 01:13:38;;;;;;;18.85;2.53;;;2.10;82.20;;;;;;5078227;28;20047;-67
2022/04/08 01:16:07;;;;;;;9.88;1.80;;;2.00;82.40;;;;;;5100767;28;20039;-66
2022/04/08 01:18:35;;;;;;;10.30;2.17;;;1.90;82.60;;;;;;5093616;28;20047;-66
2022/04/08 01:21:05;;;;;;;9.50;1.90;;;1.90;82.70;;;;;;5108656;28;20497;-66
2022/04/08 01:23:36;;;;;;;11.00;1.95;;;1.80;82.80;;;;;;5090810;28;20310;-66
2022/04/08 01:26:08;;;;;;;10.75;1.85;;;1.80;82.90;;;;;;5083390;28;20044;-66
2022/04/08 01:28:35;;;;;;;16.20;2.42;;;1.70;83.10;;;;;;5104722;28;20043;-66
2022/04/08 01:31:03;;;;;;;11.57;1.65;;;1.70;83.40;;;;;;5097579;28;20509;-67
2022/04/08 01:33:30;;;;;;;12.60;2.40;;;1.70;83.50;;;;;;5097195;28;20039;-67
2022/04/08 01:35:58;;;;;;;11.75;1.98;;;1.60;83.50;;;;;;5094923;28;20059;-66
2022/04/08 01:38:26;;;;;;;12.10;2.20;;;1.60;83.60;;;;;;5109127;28;20046;-67
2022/04/08 01:40:53;;;;;;;11.73;1.60;;;1.60;83.70;;;;;;5094160;28;20056;-67
2022/04/08 01:43:21;;;;;;;10.88;1.65;;;1.60;83.90;;;;;;5092406;28;20060;-66
2022/04/08 01:45:48;;;;;;;10.02;2.10;;;1.70;84.00;;;;;;5093184;28;20397;-67
2022/04/08 01:48:17;;;;;;;7.40;1.55;;;1.60;84.00;;;;;;5092281;28;20051;-66
2022/04/08 01:50:45;;;;;;;12.02;1.90;;;1.70;84.00;;;;;;5089495;28;20066;-67
2022/04/08 01:53:17;;;;;;;13.60;1.80;;;1.70;84.10;;;;;;5088837;28;20505;-67
2022/04/08 01:55:47;;;;;;;11.50;1.98;;;1.70;84.10;;;;;;5096744;28;20059;-66
2022/04/08 01:58:15;;;;;;;15.68;1.77;;;1.80;84.40;;;;;;5074699;28;20064;-66
2022/04/08 02:00:42;;;;;;;16.88;1.50;;;1.90;84.50;;;;;;5091690;28;20044;-67
2022/04/08 02:03:10;;;;;;;13.57;1.83;;;1.90;84.40;;;;;;5089348;28;20052;-66
2022/04/08 02:05:38;;;;;;;13.43;1.80;;;2.00;84.20;;;;;;5100123;28;20060;-66
2022/04/08 02:08:05;;;;;;;7.80;1.40;;;2.00;84.20;;;;;;5095346;28;20048;-66
2022/04/08 02:10:33;;;;;;;12.55;1.88;;;2.00;84.20;;;;;;5114511;28;20106;-66
2022/04/08 02:13:00;;;;;;;13.02;1.88;;;2.10;84.20;;;;;;5095076;28;20040;-67
2022/04/08 02:15:32;;;;;;;15.43;1.60;;;2.10;84.40;;;;;;5110646;28;20058;-67
2022/04/08 02:18:04;;;;;;;12.35;1.60;;;2.30;84.50;;;;;;5092790;28;20040;-66
2022/04/08 02:20:32;;;;;;;14.57;3.05;;;2.40;84.30;;;;;;5115469;28;20119;-67
2022/04/08 02:23:00;;;;;;;9.82;1.55;;;2.50;84.10;;;;;;5113284;28;20055;-67
2022/04/08 02:25:28;;;;;;;6.68;1.25;;;2.60;83.90;;;;;;5102173;28;20503;-67
2022/04/08 02:27:56;;;;;;;7.70;1.77;;;2.70;83.80;;;;;;5104557;28;20055;-66
2022/04/08 02:30:24;;;;;;;9.73;2.63;;;2.70;83.60;;;;;;5088314;28;20060;-66
2022/04/08 02:32:51;;;;;;;16.55;2.33;;;2.80;83.50;;;;;;5098263;28;20500;-66
2022/04/08 02:35:20;;;;;;;6.65;1.60;;;2.80;83.40;;;;;;5093130;28;20055;-67
2022/04/08 02:37:48;;;;;;;19.00;2.15;;;2.70;83.30;;;;;;5097267;28;20047;-67
2022/04/08 02:40:15;;;;;;;15.65;1.88;;;2.70;83.40;;;;;;5108363;27;20382;-66
2022/04/08 02:42:43;;;;;;;13.57;2.47;;;2.70;83.50;;;;;;5098974;28;20047;-66
2022/04/08 02:45:11;;;;;;;10.52;1.95;;;2.70;83.50;;;;;;5104328;28;20051;-66
2022/04/08 02:47:42;;;;;;;16.20;2.08;;;2.70;83.60;;;;;;5101076;28;20044;-66
2022/04/08 02:50:11;;;;;;;12.85;2.05;;;2.70;83.60;;;;;;5093574;28;20393;-67
2022/04/08 02:52:38;;;;;;;13.25;1.70;;;2.70;83.60;;;;;;5104497;28;20048;-67
2022/04/08 02:55:06;;;;;;;16.27;2.05;;;2.80;83.50;;;;;;5102701;28;20041;-67
2022/04/08 02:57:44;;;;;;;14.35;1.90;;;2.80;83.50;;;;;;5104267;28;20388;-67
2022/04/08 03:00:19;;;;;;;9.15;1.70;;;2.80;83.70;;;;;;5109888;28;20431;-66
2022/04/08 03:02:48;;;;;;;10.77;1.75;;;2.80;83.80;;;;;;5088808;28;20063;-67
2022/04/08 03:05:16;;;;;;;11.10;1.95;;;2.70;83.80;;;;;;5092197;28;20056;-67
2022/04/08 03:07:44;;;;;;;15.45;2.00;;;2.70;83.90;;;;;;5103341;28;20047;-67
2022/04/08 03:10:12;;;;;;;13.13;2.05;;;2.50;84.10;;;;;;5078747;28;20047;-66
2022/04/08 03:12:40;;;;;;;12.27;1.88;;;2.40;84.10;;;;;;5100650;28;20400;-66
2022/04/08 03:15:08;;;;;;;11.88;1.90;;;2.30;84.30;;;;;;5090247;28;20048;-67
2022/04/08 03:17:37;;;;;;;10.05;2.00;;;2.20;84.80;;;;;;5089779;28;20501;-66
2022/04/08 03:20:05;;;;;;;12.02;1.60;;;2.20;85.30;;;;;;5103336;28;20042;-66
2022/04/08 03:22:33;;;;;;;6.90;1.65;;;2.20;85.50;;;;;;5093698;28;20056;-67
2022/04/08 03:25:00;;;;;;;6.80;1.50;;;2.20;85.50;;;;;;5071062;28;20055;-66
2022/04/08 03:27:28;;;;;;;11.27;2.78;;;2.10;85.50;;;;;;5067924;28;20506;-66
2022/04/08 03:29:56;;;;;;;9.45;2.38;;;2.00;85.60;;;;;;5103116;28;20134;-67
2022/04/08 03:32:23;;;;;;;8.80;1.80;;;2.00;85.70;;;;;;5100721;28;20069;-67
2022/04/08 03:34:57;;;;;;;12.48;1.92;;;1.90;85.90;;;;;;5097670;28;20048;-67
2022/04/08 03:37:26;;;;;;;13.38;2.40;;;1.90;86.10;;;;;;5110138;28;20067;-67
2022/04/08 03:39:54;;;;;;;17.50;2.42;;;1.90;86.30;;;;;;5097810;28;20055;-68
2022/04/08 03:42:22;;;;;;;12.65;2.10;;;2.00;86.50;;;;;;5109039;28;20046;-66
2022/04/08 03:44:51;;;;;;;10.20;1.83;;;1.90;86.50;;;;;;5113831;28;20047;-67
2022/04/08 03:47:20;;;;;;;15.82;2.88;;;1.90;86.40;;;;;;5084902;28;20056;-67
2022/04/08 03:49:48;;;;;;;14.95;2.53;;;1.80;86.50;;;;;;5056929;28;20063;-67
2022/04/08 03:52:16;;;;;;;15.80;2.40;;;1.80;86.60;;;;;;5092206;28;20052;-66
2022/04/08 03:54:43;;;;;;;10.40;2.10;;;1.80;86.70;;;;;;5101686;28;20049;-67
2022/04/08 03:57:11;;;;;;;10.80;2.42;;;1.70;86.70;;;;;;5096846;28;20348;-66
2022/04/08 03:59:41;;;;;;;14.93;2.17;;;1.70;86.70;;;;;;5108295;28;20114;-67
2022/04/08 04:02:09;;;;;;;10.23;2.05;;;1.50;86.90;;;;;;5103778;28;20054;-67
2022/04/08 04:04:37;;;;;;;14.27;2.58;;;1.50;87.00;;;;;;5090003;28;20465;-66
2022/04/08 04:07:05;;;;;;;12.05;2.20;;;1.30;87.00;;;;;;5103821;28;20043;-66
2022/04/08 04:09:33;;;;;;;11.15;2.60;;;1.30;87.10;;;;;;5111349;28;20396;-66
2022/04/08 04:12:00;;;;;;;14.85;2.35;;;1.20;87.10;;;;;;5104607;28;20048;-67
2022/04/08 04:14:28;;;;;;;10.32;2.67;;;1.00;87.30;;;;;;5098348;28;20036;-67
2022/04/08 04:16:56;;;;;;;9.45;2.17;;;0.90;87.40;;;;;;5084871;28;20458;-67
2022/04/08 04:19:24;;;;;;;14.75;2.83;;;0.90;87.60;;;;;;5088796;28;20056;-66
2022/04/08 04:21:52;;;;;;;15.38;3.42;;;0.80;87.60;;;;;;5097036;28;20043;-67
2022/04/08 04:24:20;;;;;;;11.35;2.90;;;0.70;87.60;;;;;;5104187;28;20145;-66
2022/04/08 04:26:47;;;;;;;12.18;3.35;;;0.60;87.60;;;;;;5091482;28;20051;-66
2022/04/08 04:29:15;;;;;;;12.02;3.50;;;0.50;87.70;;;;;;5099442;28;20043;-66
2022/04/08 04:31:42;;;;;;;17.60;3.17;;;0.40;87.80;;;;;;5091972;28;20947;-66
2022/04/08 04:34:10;;;;;;;18.17;3.38;;;0.30;87.90;;;;;;5095063;28;20460;-67
2022/04/08 04:36:37;;;;;;;13.82;3.88;;;0.20;88.10;;;;;;5091108;28;20295;-66
2022/04/08 04:39:05;;;;;;;14.20;3.83;;;0.20;88.20;;;;;;5092519;28;20063;-67
2022/04/08 04:41:32;;;;;;;25.42;5.95;;;0.10;88.30;;;;;;5100307;28;20044;-67
2022/04/08 04:44:00;;;;;;;20.25;4.35;;;0.10;88.30;;;;;;5092349;28;20409;-66
2022/04/08 04:46:27;;;;;;;15.55;3.83;;;0.10;88.30;;;;;;5089318;28;20063;-67
2022/04/08 04:48:55;;;;;;;20.63;4.45;;;0.00;88.20;;;;;;5091721;28;20063;-66
2022/04/08 04:51:23;;;;;;;22.83;4.25;;;0.00;88.30;;;;;;5091392;28;20052;-66
2022/04/08 04:53:50;;;;;;;12.68;3.60;;;0.00;88.40;;;;;;5101644;28;20047;-67
2022/04/08 04:56:18;;;;;;;12.40;4.10;;;0.00;88.40;;;;;;5091958;28;20055;-66
2022/04/08 04:58:46;;;;;;;19.52;4.60;;;-0.10;88.30;;;;;;5102184;28;20055;-67
2022/04/08 05:01:14;;;;;;;13.75;4.30;;;-0.20;88.40;;;;;;5099298;28;20039;-66
2022/04/08 05:03:41;;;;;;;21.48;4.78;;;-0.20;88.70;;;;;;5105648;28;20046;-67
2022/04/08 05:06:09;;;;;;;21.27;4.40;;;-0.20;88.70;;;;;;5095030;28;20079;-67
2022/04/08 05:08:37;;;;;;;17.52;5.10;;;-0.20;88.80;;;;;;5101488;28;20213;-67
2022/04/08 05:11:04;;;;;;;21.30;6.55;;;-0.20;88.80;;;;;;5090136;28;20534;-67
2022/04/08 05:13:35;;;;;;;21.40;6.68;;;-0.20;88.80;;;;;;5089375;28;20044;-67
2022/04/08 05:16:03;;;;;;;22.08;5.97;;;-0.20;88.80;;;;;;5100850;28;20036;-68
2022/04/08 05:18:30;;;;;;;14.95;6.18;;;-0.30;88.70;;;;;;5097414;28;20039;-68
2022/04/08 05:20:58;;;;;;;17.13;6.45;;;-0.30;88.70;;;;;;5100179;28;20040;-68
2022/04/08 05:23:29;;;;;;;32.05;7.88;;;-0.40;88.80;;;;;;5103004;28;20393;-68
2022/04/08 05:25:57;;;;;;;29.23;6.35;;;-0.40;89.00;;;;;;5109042;28;20519;-67
2022/04/08 05:28:24;;;;;;;20.73;5.70;;;-0.40;89.10;;;;;;5100546;28;20052;-67
2022/04/08 05:30:52;;;;;;;13.98;5.63;;;-0.40;89.00;;;;;;5093319;28;20405;-68
2022/04/08 05:33:20;;;;;;;21.60;6.32;;;-0.50;88.90;;;;;;5092688;28;20046;-67
2022/04/08 05:35:48;;;;;;;23.13;6.63;;;-0.50;89.00;;;;;;5107693;28;20060;-68
2022/04/08 05:38:16;;;;;;;31.90;7.32;;;-0.60;89.10;;;;;;5075121;28;20047;-68
2022/04/08 05:40:44;;;;;;;26.75;6.28;;;-0.60;89.10;;;;;;5091169;28;20036;-67
2022/04/08 05:43:12;;;;;;;27.15;7.75;;;-0.60;89.10;;;;;;5099849;28;20405;-67
2022/04/08 05:45:39;;;;;;;24.65;7.05;;;-0.60;89.30;;;;;;5076606;28;20051;-68
2022/04/08 05:48:08;;;;;;;36.47;9.05;;;-0.60;89.40;;;;;;5091136;28;20048;-67
2022/04/08 05:50:35;;;;;;;39.45;8.27;;;-0.60;89.40;;;;;;5087733;28;20037;-67
2022/04/08 05:53:03;;;;;;;33.15;8.27;;;-0.60;89.50;;;;;;5104880;28;20527;-67
2022/04/08 05:55:51;;;;;;;36.00;9.02;;;-0.60;89.40;;;;;;5113891;28;20039;-68
2022/04/08 05:58:18;;;;;;;152.35;15.70;;;-0.60;89.50;;;;;;5108476;28;20045;-67
2022/04/08 06:00:46;;;;;;;47.38;10.35;;;-0.50;89.60;;;;;;5108145;28;20048;-68
2022/04/08 06:03:14;;;;;;;37.70;8.88;;;-0.50;89.50;;;;;;5094366;28;20044;-68
2022/04/08 06:05:41;;;;;;;47.42;9.35;;;-0.50;89.30;;;;;;5095179;28;20052;-68
2022/04/08 06:08:09;;;;;;;36.03;8.57;;;-0.50;89.40;;;;;;5096626;28;20043;-67
2022/04/08 06:10:38;;;;;;;44.75;10.68;;;-0.50;89.50;;;;;;5111288;28;20039;-68
2022/04/08 06:13:05;;;;;;;44.25;9.98;;;-0.50;89.60;;;;;;5095871;28;20048;-72
2022/04/08 06:15:34;;;;;;;251.95;19.00;;;-0.50;89.60;;;;;;5102232;28;20036;-68
2022/04/08 06:18:03;;;;;;;31.90;8.82;;;-0.40;89.70;;;;;;5091881;28;20048;-68
2022/04/08 06:20:30;;;;;;;40.97;8.95;;;-0.30;89.70;;;;;;5106240;28;20524;-68
2022/04/08 06:22:58;;;;;;;30.50;7.78;;;-0.30;89.60;;;;;;5103198;28;20043;-67
2022/04/08 06:25:25;;;;;;;39.67;9.02;;;-0.20;89.60;;;;;;5079472;28;20066;-67
2022/04/08 06:28:04;;;;;;;40.05;9.77;;;-0.20;89.50;;;;;;5098249;28;20442;-68
2022/04/08 06:30:37;;;;;;;24.23;8.65;;;-0.20;89.60;;;;;;5115159;27;20047;-68
2022/04/08 06:33:06;;;;;;;27.88;9.80;;;-0.20;89.60;;;;;;5100946;28;20401;-67
2022/04/08 06:35:35;;;;;;;35.08;12.20;;;-0.10;89.60;;;;;;5092559;28;20059;-68
2022/04/08 06:38:05;;;;;;;30.92;10.93;;;-0.10;89.60;;;;;;5094851;28;20088;-68
2022/04/08 06:40:42;;;;;;;26.38;9.05;;;0.00;89.80;;;;;;5077551;28;20516;-68
2022/04/08 06:43:10;;;;;;;24.98;9.02;;;0.00;89.70;;;;;;5102734;28;20078;-68
2022/04/08 06:45:38;;;;;;;29.92;8.25;;;0.10;89.80;;;;;;5101150;28;20048;-68
2022/04/08 06:48:06;;;;;;;26.90;8.35;;;0.10;89.70;;;;;;5075246;28;20047;-68
2022/04/08 06:50:34;;;;;;;36.67;8.82;;;0.20;89.70;;;;;;5105871;28;20048;-68
2022/04/08 06:53:02;;;;;;;31.75;8.43;;;0.30;89.70;;;;;;5108538;28;20424;-68
2022/04/08 06:55:31;;;;;;;26.88;8.43;;;0.30;89.70;;;;;;5105597;28;20040;-68
2022/04/08 06:58:01;;;;;;;35.42;9.73;;;0.40;89.70;;;;;;5094784;28;20055;-68
2022/04/08 07:00:30;;;;;;;27.80;9.20;;;0.50;89.70;;;;;;5092144;28;20048;-68
2022/04/08 07:02:57;;;;;;;29.45;9.20;;;0.60;89.70;;;;;;5082907;28;20497;-68
2022/04/08 07:05:26;;;;;;;27.33;9.30;;;0.70;89.70;;;;;;5106132;28;20036;-68
2022/04/08 07:07:54;;;;;;;27.33;8.73;;;0.70;89.80;;;;;;5099749;28;20109;-68
2022/04/08 07:10:22;;;;;;;17.23;8.27;;;0.80;89.80;;;;;;5106916;28;20051;-68
2022/04/08 07:12:49;;;;;;;31.38;8.52;;;1.00;89.80;;;;;;5112145;28;20044;-67
2022/04/08 07:15:17;;;;;;;18.20;8.02;;;1.00;89.70;;;;;;5102422;28;20035;-68
2022/04/08 07:17:45;;;;;;;25.15;8.07;;;1.10;89.70;;;;;;5077524;28;20401;-68
2022/04/08 07:20:17;;;;;;;29.23;8.98;;;1.20;89.60;;;;;;5107727;28;20040;-68
2022/04/08 07:22:46;;;;;;;19.95;7.95;;;1.30;89.70;;;;;;5096580;28;20052;-72
2022/04/08 07:25:15;;;;;;;21.58;7.40;;;1.30;89.70;;;;;;5088433;28;20393;-68
2022/04/08 07:27:48;;;;;;;25.90;7.60;;;1.40;89.70;;;;;;5092738;28;20504;-68
2022/04/08 07:30:17;;;;;;;23.33;6.88;;;1.50;89.70;;;;;;5097890;28;20035;-68
2022/04/08 07:32:46;;;;;;;21.67;6.30;;;1.60;89.70;;;;;;5098525;28;20048;-69
2022/04/08 07:35:14;;;;;;;23.90;5.78;;;1.70;89.60;;;;;;5084982;28;20039;-68
2022/04/08 07:37:41;;;;;;;24.85;5.30;;;1.80;89.60;;;;;;5094403;28;20048;-68
2022/04/08 07:40:12;;;;;;;16.10;4.28;;;1.80;89.60;;;;;;5108882;28;20062;-68
2022/04/08 07:42:39;;;;;;;20.45;3.92;;;1.90;89.60;;;;;;5090747;28;20052;-68
2022/04/08 07:45:08;;;;;;;13.18;3.08;;;2.00;89.60;;;;;;5097080;28;20095;-68
2022/04/08 07:47:36;;;;;;;20.27;3.85;;;2.20;89.60;;;;;;5102745;28;20054;-68
2022/04/08 07:50:10;;;;;;;14.20;3.35;;;2.30;89.60;;;;;;5112187;28;20374;-68
2022/04/08 07:52:39;;;;;;;13.13;3.30;;;2.40;89.60;;;;;;5109476;28;20047;-68
2022/04/08 07:55:08;;;;;;;18.35;3.20;;;2.50;89.40;;;;;;5092435;28;20059;-68
2022/04/08 07:57:45;;;;;;;14.27;3.10;;;2.70;89.30;;;;;;5097373;27;20051;-68
2022/04/08 08:00:15;;;;;;;14.02;3.22;;;2.70;89.20;;;;;;5093269;28;20048;-68
2022/04/08 08:02:43;;;;;;;7.22;2.45;;;2.80;89.20;;;;;;5093173;28;20413;-68
2022/04/08 08:05:12;;;;;;;13.02;3.85;;;2.90;89.20;;;;;;5104422;28;20047;-68
2022/04/08 08:07:47;;;;;;;11.18;2.75;;;3.00;89.10;;;;;;5092438;28;20524;-67
2022/04/08 08:10:23;;;;;;;10.23;3.77;;;3.10;89.00;;;;;;5094421;28;20360;-67
2022/04/08 08:12:52;;;;;;;12.30;4.18;;;3.20;88.90;;;;;;5093211;28;20048;-67
2022/04/08 08:15:21;;;;;;;12.13;3.92;;;3.30;88.90;;;;;;5091794;28;20524;-67
2022/04/08 08:17:50;;;;;;;9.57;4.03;;;3.40;88.80;;;;;;5105665;28;20044;-67
2022/04/08 08:20:20;;;;;;;12.93;3.78;;;3.50;88.60;;;;;;5074244;28;20060;-67
2022/04/08 08:22:49;;;;;;;13.48;4.40;;;3.70;88.50;;;;;;5105212;28;20055;-67
2022/04/08 08:25:18;;;;;;;15.13;3.70;;;3.80;88.30;;;;;;5077684;28;20398;-67
2022/04/08 08:27:59;;;;;;;18.48;4.28;;;3.90;88.10;;;;;;5088780;28;20374;-67
2022/04/08 08:30:29;;;;;;;14.18;4.03;;;4.00;87.90;;;;;;5092551;28;20050;-67
2022/04/08 08:32:58;;;;;;;15.75;2.92;;;4.20;87.70;;;;;;5092980;28;20488;-67
2022/04/08 08:35:26;;;;;;;11.52;2.30;;;4.40;87.30;;;;;;5079707;28;20482;-67
2022/04/08 08:38:00;;;;;;;8.40;1.33;;;4.60;87.00;;;;;;5091144;28;20048;-68
2022/04/08 08:40:31;;;;;;;6.25;1.35;;;4.80;86.50;;;;;;5092610;28;20421;-69
2022/04/08 08:43:07;;;;;;;3.33;0.82;;;4.90;85.60;;;;;;5096891;28;20047;-69
2022/04/08 08:45:36;;;;;;;5.93;1.10;;;5.00;85.20;;;;;;5077921;28;20058;-67
2022/04/08 08:48:07;;;;;;;10.38;1.27;;;5.20;84.10;;;;;;5112756;28;20047;-69
2022/04/08 08:50:39;;;;;;;9.00;1.25;;;5.20;83.10;;;;;;5090194;28;20103;-67
2022/04/08 08:53:07;;;;;;;6.65;0.70;;;5.30;82.30;;;;;;5091993;28;20409;-67
2022/04/08 08:55:35;;;;;;;4.35;0.90;;;5.30;82.20;;;;;;5091987;28;20043;-67
2022/04/08 08:58:03;;;;;;;5.97;0.90;;;5.40;81.80;;;;;;5091094;28;20052;-67
2022/04/08 09:00:30;;;;;;;6.60;0.95;;;5.50;81.40;;;;;;5092368;28;20055;-67
2022/04/08 09:02:58;;;;;;;7.50;1.48;;;5.60;80.80;;;;;;5074456;28;20044;-67
2022/04/08 09:05:26;;;;;;;6.10;1.17;;;5.80;80.20;;;;;;5088605;28;20049;-67
2022/04/08 09:08:01;;;;;;;5.03;1.02;;;5.80;80.00;;;;;;5080499;28;20032;-67
2022/04/08 09:10:31;;;;;;;3.50;0.63;;;5.90;79.80;;;;;;5090755;28;20055;-67
2022/04/08 09:13:00;;;;;;;5.07;1.08;;;6.00;78.50;;;;;;5085816;28;20508;-68
2022/04/08 09:15:28;;;;;;;8.55;1.20;;;6.20;78.10;;;;;;5054198;28;20044;-67
2022/04/08 09:18:14;;;;;;;7.88;1.40;;;6.20;77.70;;;;;;5077466;28;20048;-68
2022/04/08 09:20:48;;;;;;;4.68;1.00;;;6.30;77.70;;;;;;5090719;28;20048;-68
2022/04/08 09:23:18;;;;;;;6.35;0.95;;;6.40;76.80;;;;;;5090574;28;20059;-68
2022/04/08 09:25:49;;;;;;;5.80;1.00;;;6.50;76.10;;;;;;5070879;28;20071;-68
2022/04/08 09:28:18;;;;;;;5.88;1.02;;;6.70;75.00;;;;;;5070933;28;20374;-68
2022/04/08 09:30:52;;;;;;;9.40;1.27;;;6.70;74.40;;;;;;5072293;28;20056;-68
2022/04/08 09:33:21;;;;;;;6.32;0.93;;;6.80;74.30;;;;;;5071978;28;20044;-67
2022/04/08 09:35:52;;;;;;;3.20;0.80;;;6.80;74.40;;;;;;5085990;28;20043;-68
2022/04/08 09:38:22;;;;;;;4.60;0.82;;;7.00;74.10;;;;;;5092086;28;20048;-67
2022/04/08 09:40:49;;;;;;;4.90;1.23;;;7.20;73.00;;;;;;5090579;28;20055;-68
2022/04/08 09:43:17;;;;;;;5.68;1.05;;;7.40;71.80;;;;;;5104486;28;20044;-73
2022/04/08 09:45:46;;;;;;;6.63;1.17;;;7.50;71.60;;;;;;5111986;28;20055;-68
2022/04/08 09:48:13;;;;;;;4.55;0.95;;;7.60;71.70;;;;;;5104010;28;20055;-72
2022/04/08 09:50:45;;;;;;;5.72;1.30;;;7.60;70.50;;;;;;5073744;28;20055;-74
2022/04/08 09:53:16;;;;;;;4.65;0.90;;;7.60;70.70;;;;;;5089908;28;20054;-69
2022/04/08 09:55:44;;;;;;;3.80;0.88;;;7.70;70.60;;;;;;5089322;28;20052;-69
2022/04/08 09:58:14;;;;;;;6.63;1.17;;;7.70;70.00;;;;;;5089300;28;20055;-69
2022/04/08 10:00:46;;;;;;;4.70;0.90;;;7.90;68.30;;;;;;5092264;28;20059;-69
2022/04/08 10:03:13;;;;;;;6.80;1.05;;;7.90;68.00;;;;;;5105284;28;20051;-68
2022/04/08 10:05:41;;;;;;;2.13;0.45;;;8.00;67.80;;;;;;5090998;28;20059;-68
2022/04/08 10:08:09;;;;;;;4.03;0.60;;;8.20;66.80;;;;;;5090317;28;20044;-74
2022/04/08 10:10:48;;;;;;;6.47;0.98;;;8.20;64.60;;;;;;5090472;28;20040;-68
2022/04/08 10:13:59;;;;;;;3.50;0.95;;;8.20;65.20;;;;;;5090847;28;20040;-67
2022/04/08 10:16:28;;;;;;;2.45;0.75;;;8.30;65.10;;;;;;5058376;28;20063;-67
2022/04/08 10:18:58;;;;;;;12.10;1.52;;;8.40;64.40;;;;;;5089992;28;20481;-68
2022/04/08 10:21:35;;;;;;;10.00;2.65;;;8.60;62.80;;;;;;5070724;28;20052;-68
2022/04/08 10:24:09;;;;;;;2.55;0.70;;;8.70;62.60;;;;;;5089663;28;20497;-68
2022/04/08 10:26:59;;;;;;;4.07;1.17;;;8.80;62.70;;;;;;5082720;28;20525;-67
2022/04/08 10:29:26;;;;;;;6.43;1.27;;;8.90;62.80;;;;;;5071501;28;20045;-71
2022/04/08 10:31:56;;;;;;;3.45;1.00;;;9.10;62.90;;;;;;5091976;28;20040;-67
2022/04/08 10:34:23;;;;;;;4.63;0.73;;;9.30;61.20;;;;;;5083018;28;20070;-67
2022/04/08 10:36:52;;;;;;;1.63;0.40;;;9.30;60.30;;;;;;5095009;28;20401;-70
2022/04/08 10:39:22;;;;;;;2.67;0.80;;;9.10;59.40;;;;;;5093557;28;20401;-67
2022/04/08 10:41:58;;;;;;;2.72;0.80;;;8.80;59.60;;;;;;5094280;28;20055;-72
2022/04/08 10:44:34;;;;;;;3.35;0.88;;;8.90;60.00;;;;;;5088032;28;20055;-70
2022/04/08 10:47:09;;;;;;;2.60;0.85;;;9.00;60.60;;;;;;5094192;28;20360;-66
2022/04/08 10:49:58;;;;;;;4.60;0.90;;;9.30;59.90;;;;;;5094396;28;20488;-66
2022/04/08 10:52:27;;;;;;;3.05;0.77;;;9.30;59.40;;;;;;5087673;28;20048;-68
2022/04/08 10:55:10;;;;;;;6.60;1.13;;;9.30;58.40;;;;;;5092823;28;20059;-68
2022/04/08 10:57:39;;;;;;;5.87;0.90;;;9.20;58.20;;;;;;5090192;28;20404;-68
2022/04/08 11:00:18;;;;;;;6.75;1.00;;;9.30;58.20;;;;;;5089304;28;20427;-68
2022/04/08 11:02:47;;;;;;;1.48;0.50;;;9.50;57.30;;;;;;5069598;28;20036;-71
2022/04/08 11:05:18;;;;;;;7.70;1.02;;;9.50;56.00;;;;;;5076344;28;20062;-66
2022/04/08 11:07:48;;;;;;;4.03;0.88;;;9.50;55.50;;;;;;5093645;28;20397;-74
2022/04/08 11:10:20;;;;;;;1.70;0.90;;;9.70;55.70;;;;;;5092901;28;20051;-68
2022/04/08 11:12:50;;;;;;;2.28;0.77;;;10.00;55.90;;;;;;5090420;28;20051;-68
2022/04/08 11:15:20;;;;;;;2.47;0.90;;;10.20;54.30;;;;;;5093882;28;20052;-69
2022/04/08 11:17:47;;;;;;;3.72;0.70;;;9.90;53.30;;;;;;5094090;28;20051;-68
2022/04/08 11:20:18;;;;;;;4.75;1.17;;;9.50;54.60;;;;;;5093837;28;20497;-68
2022/04/08 11:22:49;;;;;;;3.58;1.00;;;9.50;55.10;;;;;;5092674;28;20071;-67
2022/04/08 11:25:30;;;;;;;2.05;0.80;;;9.60;55.00;;;;;;5094182;28;20051;-68
2022/04/08 11:28:01;;;;;;;5.97;1.00;;;9.70;54.60;;;;;;5093950;28;20040;-67
2022/04/08 11:30:34;;;;;;;2.17;0.70;;;9.70;53.00;;;;;;5091811;28;20056;-67
2022/04/08 11:33:16;;;;;;;3.30;1.00;;;9.70;51.80;;;;;;5093426;28;20052;-67
2022/04/08 11:35:45;;;;;;;3.33;1.00;;;9.60;52.30;;;;;;5092705;28;20493;-67
2022/04/08 11:38:17;;;;;;;2.67;1.20;;;9.60;52.30;;;;;;5093794;28;20285;-69
2022/04/08 11:40:45;;;;;;;4.50;1.05;;;9.70;52.90;;;;;;5091829;28;20040;-68
2022/04/08 11:43:15;;;;;;;2.90;1.00;;;9.90;52.80;;;;;;5094262;28;20412;-68
2022/04/08 11:45:44;;;;;;;5.38;1.20;;;10.30;53.40;;;;;;5108289;28;20059;-68
2022/04/08 11:48:15;;;;;;;2.35;0.90;;;10.50;50.70;;;;;;5073515;28;20392;-68
2022/04/08 11:50:50;;;;;;;3.20;1.02;;;10.70;48.70;;;;;;5073264;28;20059;-73
2022/04/08 11:53:20;;;;;;;2.13;0.90;;;10.70;49.40;;;;;;5087774;28;20048;-68
2022/04/08 11:56:01;;;;;;;2.92;1.05;;;10.80;49.40;;;;;;5093134;28;20044;-68
2022/04/08 11:58:29;;;;;;;3.40;1.40;;;10.90;48.40;;;;;;5093740;28;20044;-68
2022/04/08 12:01:00;;;;;;;6.68;1.40;;;10.90;48.30;;;;;;5093137;28;20047;-68
2022/04/08 12:03:32;;;;;;;2.65;1.15;;;11.00;49.40;;;;;;5093174;28;20044;-68
2022/04/08 12:06:03;;;;;;;1.98;1.08;;;11.20;49.40;;;;;;5093209;28;20040;-68
2022/04/08 12:08:37;;;;;;;5.97;1.10;;;11.30;48.80;;;;;;5093382;28;20044;-68
2022/04/08 12:11:09;;;;;;;1.85;1.10;;;11.50;48.30;;;;;;5092473;28;20165;-68
2022/04/08 12:13:40;;;;;;;3.30;1.20;;;11.60;46.50;;;;;;5093244;28;20048;-68
2022/04/08 12:16:10;;;;;;;2.60;1.10;;;11.60;47.00;;;;;;5093099;28;20062;-67
2022/04/08 12:18:48;;;;;;;3.63;1.30;;;11.70;47.60;;;;;;5092992;28;20040;-67
2022/04/08 12:21:26;;;;;;;2.42;1.30;;;12.20;47.40;;;;;;5093101;28;20051;-68
2022/04/08 12:23:56;;;;;;;6.90;1.13;;;12.60;47.20;;;;;;5093040;28;20060;-68
2022/04/08 12:26:28;;;;;;;3.55;1.55;;;12.60;47.30;;;;;;5092941;28;20044;-67
2022/04/08 12:29:05;;;;;;;2.47;1.42;;;12.90;45.20;;;;;;5093029;28;20074;-68
2022/04/08 12:31:43;;;;;;;3.47;1.20;;;12.90;45.10;;;;;;5091383;28;20051;-68
2022/04/08 12:34:11;;;;;;;3.58;1.25;;;12.70;45.70;;;;;;5091648;28;20056;-67
2022/04/08 12:36:38;;;;;;;3.28;1.13;;;12.80;45.10;;;;;;5092729;28;20366;-68
2022/04/08 12:39:12;;;;;;;1.10;0.93;;;13.40;45.00;;;;;;5092221;28;20055;-68
2022/04/08 12:41:44;;;;;;;2.85;1.10;;;14.20;42.80;;;;;;5092362;28;20044;-67
2022/04/08 12:44:12;;;;;;;4.40;1.50;;;14.80;42.50;;;;;;5092281;28;20067;-68
2022/04/08 12:46:40;;;;;;;2.60;0.98;;;15.30;41.20;;;;;;5091075;28;20382;-68
2022/04/08 12:49:08;;;;;;;3.33;1.10;;;15.70;38.80;;;;;;5092440;28;20048;-68
2022/04/08 12:51:36;;;;;;;3.50;1.02;;;15.80;38.00;;;;;;5091934;28;20055;-68
2022/04/08 12:54:04;;;;;;;1.90;0.75;;;15.10;38.70;;;;;;5092143;28;20409;-68
2022/04/08 12:56:31;;;;;;;3.28;1.00;;;14.20;37.40;;;;;;5092603;28;20397;-68
2022/04/08 12:59:01;;;;;;;1.88;0.98;;;13.30;39.40;;;;;;5092077;28;20052;-68
2022/04/08 13:01:29;;;;;;;2.58;0.90;;;13.20;40.30;;;;;;5092367;28;20478;-68